sensor_id;sensor_type;location;lat;lon;timestamp;P1;durP1;ratioP1;P2;durP2;ratioP2
69057;SDS011;56128;37.534;-122.308;2022-10-16T00:02:07;12.82;;;6.43;;
69057;SDS011;56128;37.534;-122.308;2022-10-16T00:04:33;11.63;;;6.45;;
69057;SDS011;56128;37.534;-122.308;2022-10-16T00:06:59;11.85;;;7.32;;
69057;SDS011;56128;37.534;-122.308;2022-10-16T00:09:25;13.38;;;6.72;;
69057;SDS011;56128;37.534;-122.308;2022-10-16T00:11:51;12.93;;;7.22;;
69057;SDS011;56128;37.534;-122.308;2022-10-16T00:14:18;13.30;;;7.10;;
69057;SDS011;56128;37.534;-122.308;2022-10-16T00:16:44;13.75;;;7.43;;
69057;SDS011;56128;37.534;-122.308;2022-10-16T00:19:10;12.23;;;7.07;;
69057;SDS011;56128;37.534;-122.308;2022-10-16T00:21:40;13.50;;;7.28;;
69057;SDS011;56128;37.534;-122.308;2022-10-16T00:24:08;10.30;;;6.70;;
69057;SDS011;56128;37.534;-122.308;2022-10-16T00:26:36;16.95;;;7.20;;
69057;SDS011;56128;37.534;-122.308;2022-10-16T00:29:03;11.65;;;6.28;;
69057;SDS011;56128;37.534;-122.308;2022-10-16T00:31:30;12.00;;;6.88;;
69057;SDS011;56128;37.534;-122.308;2022-10-16T00:33:56;13.35;;;7.45;;
69057;SDS011;56128;37.534;-122.308;2022-10-16T00:36:23;12.82;;;7.47;;
69057;SDS011;56128;37.534;-122.308;2022-10-16T00:38:52;12.35;;;7.18;;
69057;SDS011;56128;37.534;-122.308;2022-10-16T00:41:20;16.15;;;8.00;;
69057;SDS011;56128;37.534;-122.308;2022-10-16T00:43:49;15.25;;;7.65;;
69057;SDS011;56128;37.534;-122.308;2022-10-16T00:48:43;13.13;;;7.75;;
69057;SDS011;56128;37.534;-122.308;2022-10-16T00:51:15;12.77;;;7.63;;
69057;SDS011;56128;37.534;-122.308;2022-10-16T00:53:45;14.27;;;7.70;;
69057;SDS011;56128;37.534;-122.308;2022-10-16T00:56:12;15.20;;;7.28;;
69057;SDS011;56128;37.534;-122.308;2022-10-16T00:58:38;11.15;;;7.43;;
69057;SDS011;56128;37.534;-122.308;2022-10-16T01:01:04;14.18;;;7.32;;
69057;SDS011;56128;37.534;-122.308;2022-10-16T01:03:32;16.05;;;7.88;;
69057;SDS011;56128;37.534;-122.308;2022-10-16T01:06:04;14.05;;;7.15;;
69057;SDS011;56128;37.534;-122.308;2022-10-16T01:08:44;13.73;;;6.28;;
69057;SDS011;56128;37.534;-122.308;2022-10-16T01:11:41;13.65;;;6.93;;
69057;SDS011;56128;37.534;-122.308;2022-10-16T01:14:17;12.35;;;6.68;;
69057;SDS011;56128;37.534;-122.308;2022-10-16T01:16:57;13.70;;;7.82;;
69057;SDS011;56128;37.534;-122.308;2022-10-16T01:22:17;14.90;;;8.50;;
69057;SDS011;56128;37.534;-122.308;2022-10-16T01:24:46;12.07;;;7.80;;
69057;SDS011;56128;37.534;-122.308;2022-10-16T01:27:20;18.38;;;8.88;;
69057;SDS011;56128;37.534;-122.308;2022-10-16T01:38:02;16.77;;;8.35;;
69057;SDS011;56128;37.534;-122.308;2022-10-16T01:40:39;16.23;;;8.60;;
69057;SDS011;56128;37.534;-122.308;2022-10-16T01:43:14;16.80;;;8.55;;
69057;SDS011;56128;37.534;-122.308;2022-10-16T01:45:45;18.13;;;8.40;;
69057;SDS011;56128;37.534;-122.308;2022-10-16T01:48:13;20.08;;;9.13;;
69057;SDS011;56128;37.534;-122.308;2022-10-16T01:50:44;18.27;;;9.15;;
69057;SDS011;56128;37.534;-122.308;2022-10-16T01:53:23;20.33;;;10.25;;
69057;SDS011;56128;37.534;-122.308;2022-10-16T01:55:51;17.13;;;9.23;;
69057;SDS011;56128;37.534;-122.308;2022-10-16T01:58:20;21.13;;;9.85;;
69057;SDS011;56128;37.534;-122.308;2022-10-16T02:00:47;16.63;;;8.85;;
69057;SDS011;56128;37.534;-122.308;2022-10-16T02:03:14;21.85;;;10.00;;
69057;SDS011;56128;37.534;-122.308;2022-10-16T02:05:50;22.95;;;9.93;;
69057;SDS011;56128;37.534;-122.308;2022-10-16T02:08:19;18.58;;;9.40;;
69057;SDS011;56128;37.534;-122.308;2022-10-16T02:10:54;20.77;;;9.25;;
69057;SDS011;56128;37.534;-122.308;2022-10-16T02:13:26;16.98;;;10.10;;
69057;SDS011;56128;37.534;-122.308;2022-10-16T02:15:53;18.65;;;9.80;;
69057;SDS011;56128;37.534;-122.308;2022-10-16T02:18:19;16.35;;;9.50;;
69057;SDS011;56128;37.534;-122.308;2022-10-16T02:20:48;22.15;;;9.65;;
69057;SDS011;56128;37.534;-122.308;2022-10-16T02:23:24;18.05;;;9.18;;
69057;SDS011;56128;37.534;-122.308;2022-10-16T02:26:14;22.45;;;9.73;;
69057;SDS011;56128;37.534;-122.308;2022-10-16T02:28:46;16.02;;;9.48;;
69057;SDS011;56128;37.534;-122.308;2022-10-16T02:31:19;16.85;;;9.93;;
69057;SDS011;56128;37.534;-122.308;2022-10-16T02:33:51;20.70;;;9.80;;
69057;SDS011;56128;37.534;-122.308;2022-10-16T02:36:20;23.08;;;9.70;;
69057;SDS011;56128;37.534;-122.308;2022-10-16T02:38:47;22.63;;;9.02;;
69057;SDS011;56128;37.534;-122.308;2022-10-16T02:41:13;23.92;;;13.70;;
69057;SDS011;56128;37.534;-122.308;2022-10-16T02:43:40;25.65;;;17.13;;
69057;SDS011;56128;37.534;-122.308;2022-10-16T02:46:06;26.85;;;16.50;;
69057;SDS011;56128;37.534;-122.308;2022-10-16T02:48:32;28.45;;;16.13;;
69057;SDS011;56128;37.534;-122.308;2022-10-16T02:51:00;27.85;;;18.50;;
69057;SDS011;56128;37.534;-122.308;2022-10-16T02:53:26;26.75;;;14.90;;
69057;SDS011;56128;37.534;-122.308;2022-10-16T02:55:52;21.33;;;12.60;;
69057;SDS011;56128;37.534;-122.308;2022-10-16T02:58:18;18.65;;;9.93;;
69057;SDS011;56128;37.534;-122.308;2022-10-16T03:00:45;13.25;;;7.53;;
69057;SDS011;56128;37.534;-122.308;2022-10-16T03:03:11;16.33;;;8.65;;
69057;SDS011;56128;37.534;-122.308;2022-10-16T03:05:37;17.08;;;8.40;;
69057;SDS011;56128;37.534;-122.308;2022-10-16T03:08:03;15.70;;;8.20;;
69057;SDS011;56128;37.534;-122.308;2022-10-16T03:10:29;16.58;;;8.63;;
69057;SDS011;56128;37.534;-122.308;2022-10-16T03:12:56;20.77;;;9.02;;
69057;SDS011;56128;37.534;-122.308;2022-10-16T03:15:22;15.23;;;8.30;;
69057;SDS011;56128;37.534;-122.308;2022-10-16T03:17:48;15.73;;;8.20;;
69057;SDS011;56128;37.534;-122.308;2022-10-16T03:20:14;16.25;;;8.73;;
69057;SDS011;56128;37.534;-122.308;2022-10-16T03:22:40;13.80;;;8.15;;
69057;SDS011;56128;37.534;-122.308;2022-10-16T03:25:07;17.10;;;8.35;;
69057;SDS011;56128;37.534;-122.308;2022-10-16T03:27:33;20.65;;;9.30;;
69057;SDS011;56128;37.534;-122.308;2022-10-16T03:29:59;17.52;;;9.07;;
69057;SDS011;56128;37.534;-122.308;2022-10-16T03:32:25;17.58;;;8.98;;
69057;SDS011;56128;37.534;-122.308;2022-10-16T03:34:53;18.08;;;8.80;;
69057;SDS011;56128;37.534;-122.308;2022-10-16T03:37:21;17.42;;;8.65;;
69057;SDS011;56128;37.534;-122.308;2022-10-16T03:39:47;17.73;;;8.40;;
69057;SDS011;56128;37.534;-122.308;2022-10-16T03:42:13;16.48;;;8.45;;
69057;SDS011;56128;37.534;-122.308;2022-10-16T03:44:40;15.50;;;9.15;;
69057;SDS011;56128;37.534;-122.308;2022-10-16T03:47:06;17.67;;;9.43;;
69057;SDS011;56128;37.534;-122.308;2022-10-16T03:49:32;17.83;;;9.35;;
69057;SDS011;56128;37.534;-122.308;2022-10-16T03:51:58;16.00;;;9.45;;
69057;SDS011;56128;37.534;-122.308;2022-10-16T03:54:24;15.45;;;8.75;;
69057;SDS011;56128;37.534;-122.308;2022-10-16T03:56:50;18.98;;;9.65;;
69057;SDS011;56128;37.534;-122.308;2022-10-16T03:59:16;23.23;;;9.70;;
69057;SDS011;56128;37.534;-122.308;2022-10-16T04:01:42;13.27;;;8.73;;
69057;SDS011;56128;37.534;-122.308;2022-10-16T04:04:09;22.27;;;9.15;;
69057;SDS011;56128;37.534;-122.308;2022-10-16T04:06:35;16.38;;;8.85;;
69057;SDS011;56128;37.534;-122.308;2022-10-16T04:09:01;18.20;;;9.13;;
69057;SDS011;56128;37.534;-122.308;2022-10-16T04:11:27;18.23;;;8.85;;
69057;SDS011;56128;37.534;-122.308;2022-10-16T04:13:53;19.35;;;9.35;;
69057;SDS011;56128;37.534;-122.308;2022-10-16T04:16:20;21.05;;;9.60;;
69057;SDS011;56128;37.534;-122.308;2022-10-16T04:18:46;16.27;;;8.93;;
69057;SDS011;56128;37.534;-122.308;2022-10-16T04:21:12;19.85;;;9.43;;
69057;SDS011;56128;37.534;-122.308;2022-10-16T04:23:38;18.95;;;9.13;;
69057;SDS011;56128;37.534;-122.308;2022-10-16T04:26:04;19.10;;;9.10;;
69057;SDS011;56128;37.534;-122.308;2022-10-16T04:28:30;16.00;;;9.02;;
69057;SDS011;56128;37.534;-122.308;2022-10-16T04:30:57;16.58;;;8.77;;
69057;SDS011;56128;37.534;-122.308;2022-10-16T04:33:23;21.70;;;9.45;;
69057;SDS011;56128;37.534;-122.308;2022-10-16T04:35:55;16.92;;;8.38;;
69057;SDS011;56128;37.534;-122.308;2022-10-16T04:40:48;18.48;;;8.93;;
69057;SDS011;56128;37.534;-122.308;2022-10-16T04:43:15;19.02;;;8.32;;
69057;SDS011;56128;37.534;-122.308;2022-10-16T04:45:41;18.90;;;8.77;;
69057;SDS011;56128;37.534;-122.308;2022-10-16T04:48:07;23.10;;;9.55;;
69057;SDS011;56128;37.534;-122.308;2022-10-16T04:50:33;21.65;;;9.70;;
69057;SDS011;56128;37.534;-122.308;2022-10-16T04:52:59;16.90;;;8.48;;
69057;SDS011;56128;37.534;-122.308;2022-10-16T04:55:25;17.33;;;8.77;;
69057;SDS011;56128;37.534;-122.308;2022-10-16T04:57:52;14.77;;;8.45;;
69057;SDS011;56128;37.534;-122.308;2022-10-16T05:00:18;17.55;;;9.13;;
69057;SDS011;56128;37.534;-122.308;2022-10-16T05:02:44;15.93;;;9.15;;
69057;SDS011;56128;37.534;-122.308;2022-10-16T05:05:10;19.15;;;9.23;;
69057;SDS011;56128;37.534;-122.308;2022-10-16T05:07:37;16.50;;;8.43;;
69057;SDS011;56128;37.534;-122.308;2022-10-16T05:10:03;24.05;;;9.80;;
69057;SDS011;56128;37.534;-122.308;2022-10-16T05:12:29;16.40;;;8.30;;
69057;SDS011;56128;37.534;-122.308;2022-10-16T05:14:55;19.63;;;9.85;;
69057;SDS011;56128;37.534;-122.308;2022-10-16T05:17:24;14.45;;;8.50;;
69057;SDS011;56128;37.534;-122.308;2022-10-16T05:19:50;20.70;;;9.60;;
69057;SDS011;56128;37.534;-122.308;2022-10-16T05:22:16;19.75;;;9.23;;
69057;SDS011;56128;37.534;-122.308;2022-10-16T05:24:43;22.30;;;9.77;;
69057;SDS011;56128;37.534;-122.308;2022-10-16T05:27:09;19.45;;;9.18;;
69057;SDS011;56128;37.534;-122.308;2022-10-16T05:29:36;17.23;;;9.70;;
69057;SDS011;56128;37.534;-122.308;2022-10-16T05:32:02;19.58;;;8.80;;
69057;SDS011;56128;37.534;-122.308;2022-10-16T05:34:29;21.15;;;9.23;;
69057;SDS011;56128;37.534;-122.308;2022-10-16T05:36:55;19.40;;;9.18;;
69057;SDS011;56128;37.534;-122.308;2022-10-16T05:39:21;19.75;;;9.60;;
69057;SDS011;56128;37.534;-122.308;2022-10-16T05:41:49;17.90;;;8.25;;
69057;SDS011;56128;37.534;-122.308;2022-10-16T05:44:15;17.83;;;9.45;;
69057;SDS011;56128;37.534;-122.308;2022-10-16T05:46:42;23.10;;;8.95;;
69057;SDS011;56128;37.534;-122.308;2022-10-16T05:49:08;18.50;;;9.35;;
69057;SDS011;56128;37.534;-122.308;2022-10-16T05:51:34;17.98;;;8.93;;
69057;SDS011;56128;37.534;-122.308;2022-10-16T05:54:00;19.25;;;9.43;;
69057;SDS011;56128;37.534;-122.308;2022-10-16T05:56:26;20.20;;;8.65;;
69057;SDS011;56128;37.534;-122.308;2022-10-16T05:58:52;18.42;;;8.55;;
69057;SDS011;56128;37.534;-122.308;2022-10-16T06:01:18;15.25;;;8.77;;
69057;SDS011;56128;37.534;-122.308;2022-10-16T06:03:46;17.05;;;8.70;;
69057;SDS011;56128;37.534;-122.308;2022-10-16T06:06:13;18.23;;;8.90;;
69057;SDS011;56128;37.534;-122.308;2022-10-16T06:08:44;15.90;;;8.50;;
69057;SDS011;56128;37.534;-122.308;2022-10-16T06:11:12;17.95;;;9.10;;
69057;SDS011;56128;37.534;-122.308;2022-10-16T06:13:49;16.33;;;9.25;;
69057;SDS011;56128;37.534;-122.308;2022-10-16T06:18:45;17.40;;;8.35;;
69057;SDS011;56128;37.534;-122.308;2022-10-16T06:21:13;18.77;;;9.02;;
69057;SDS011;56128;37.534;-122.308;2022-10-16T06:23:42;15.07;;;8.35;;
69057;SDS011;56128;37.534;-122.308;2022-10-16T06:26:09;15.93;;;9.07;;
69057;SDS011;56128;37.534;-122.308;2022-10-16T06:28:38;16.65;;;9.18;;
69057;SDS011;56128;37.534;-122.308;2022-10-16T06:31:05;14.23;;;8.05;;
69057;SDS011;56128;37.534;-122.308;2022-10-16T06:33:32;17.77;;;9.38;;
69057;SDS011;56128;37.534;-122.308;2022-10-16T06:36:09;15.65;;;8.88;;
69057;SDS011;56128;37.534;-122.308;2022-10-16T06:38:38;19.23;;;8.25;;
69057;SDS011;56128;37.534;-122.308;2022-10-16T06:41:04;16.67;;;8.35;;
69057;SDS011;56128;37.534;-122.308;2022-10-16T06:43:31;19.75;;;8.60;;
69057;SDS011;56128;37.534;-122.308;2022-10-16T06:46:00;18.27;;;8.30;;
69057;SDS011;56128;37.534;-122.308;2022-10-16T06:48:28;12.55;;;7.53;;
69057;SDS011;56128;37.534;-122.308;2022-10-16T06:51:27;19.75;;;8.68;;
69057;SDS011;56128;37.534;-122.308;2022-10-16T06:53:49;18.58;;;8.77;;
69057;SDS011;56128;37.534;-122.308;2022-10-16T06:56:20;17.23;;;7.90;;
69057;SDS011;56128;37.534;-122.308;2022-10-16T06:58:51;19.98;;;8.57;;
69057;SDS011;56128;37.534;-122.308;2022-10-16T07:01:20;17.00;;;8.32;;
69057;SDS011;56128;37.534;-122.308;2022-10-16T07:03:47;16.98;;;8.55;;
69057;SDS011;56128;37.534;-122.308;2022-10-16T07:06:15;18.00;;;8.73;;
69057;SDS011;56128;37.534;-122.308;2022-10-16T07:08:44;15.57;;;8.02;;
69057;SDS011;56128;37.534;-122.308;2022-10-16T07:11:15;20.25;;;8.85;;
69057;SDS011;56128;37.534;-122.308;2022-10-16T07:13:42;14.52;;;8.18;;
69057;SDS011;56128;37.534;-122.308;2022-10-16T07:16:14;15.07;;;8.93;;
69057;SDS011;56128;37.534;-122.308;2022-10-16T07:18:42;16.60;;;8.68;;
69057;SDS011;56128;37.534;-122.308;2022-10-16T07:21:20;19.48;;;8.63;;
69057;SDS011;56128;37.534;-122.308;2022-10-16T07:23:50;19.13;;;8.35;;
69057;SDS011;56128;37.534;-122.308;2022-10-16T07:26:17;18.35;;;8.70;;
69057;SDS011;56128;37.534;-122.308;2022-10-16T07:28:44;14.73;;;7.65;;
69057;SDS011;56128;37.534;-122.308;2022-10-16T07:31:11;18.65;;;9.15;;
69057;SDS011;56128;37.534;-122.308;2022-10-16T07:33:40;18.45;;;8.45;;
69057;SDS011;56128;37.534;-122.308;2022-10-16T07:36:08;22.77;;;9.02;;
69057;SDS011;56128;37.534;-122.308;2022-10-16T07:38:34;23.05;;;9.15;;
69057;SDS011;56128;37.534;-122.308;2022-10-16T07:41:01;19.63;;;8.13;;
69057;SDS011;56128;37.534;-122.308;2022-10-16T07:43:29;19.95;;;9.60;;
69057;SDS011;56128;37.534;-122.308;2022-10-16T07:45:56;19.42;;;8.95;;
69057;SDS011;56128;37.534;-122.308;2022-10-16T07:48:23;17.80;;;8.93;;
69057;SDS011;56128;37.534;-122.308;2022-10-16T07:50:51;15.50;;;8.45;;
69057;SDS011;56128;37.534;-122.308;2022-10-16T07:53:18;17.02;;;8.13;;
69057;SDS011;56128;37.534;-122.308;2022-10-16T07:55:44;16.55;;;8.38;;
69057;SDS011;56128;37.534;-122.308;2022-10-16T07:58:10;20.00;;;8.50;;
69057;SDS011;56128;37.534;-122.308;2022-10-16T08:00:37;18.02;;;8.85;;
69057;SDS011;56128;37.534;-122.308;2022-10-16T08:03:03;16.95;;;8.43;;
69057;SDS011;56128;37.534;-122.308;2022-10-16T08:05:30;18.60;;;8.52;;
69057;SDS011;56128;37.534;-122.308;2022-10-16T08:07:59;18.10;;;8.77;;
69057;SDS011;56128;37.534;-122.308;2022-10-16T08:10:25;19.98;;;8.77;;
69057;SDS011;56128;37.534;-122.308;2022-10-16T08:12:53;17.20;;;8.07;;
69057;SDS011;56128;37.534;-122.308;2022-10-16T08:15:19;18.40;;;8.80;;
69057;SDS011;56128;37.534;-122.308;2022-10-16T08:18:06;18.00;;;8.60;;
69057;SDS011;56128;37.534;-122.308;2022-10-16T08:20:32;17.08;;;8.15;;
69057;SDS011;56128;37.534;-122.308;2022-10-16T08:22:59;21.02;;;9.40;;
69057;SDS011;56128;37.534;-122.308;2022-10-16T08:25:25;17.23;;;8.13;;
69057;SDS011;56128;37.534;-122.308;2022-10-16T08:27:52;15.02;;;7.82;;
69057;SDS011;56128;37.534;-122.308;2022-10-16T08:30:19;17.23;;;8.57;;
69057;SDS011;56128;37.534;-122.308;2022-10-16T08:32:46;17.33;;;8.63;;
69057;SDS011;56128;37.534;-122.308;2022-10-16T08:35:13;13.90;;;7.95;;
69057;SDS011;56128;37.534;-122.308;2022-10-16T08:37:40;18.00;;;8.90;;
69057;SDS011;56128;37.534;-122.308;2022-10-16T08:40:07;18.98;;;8.85;;
69057;SDS011;56128;37.534;-122.308;2022-10-16T08:45:50;16.70;;;8.57;;
69057;SDS011;56128;37.534;-122.308;2022-10-16T08:53:56;17.20;;;8.63;;
69057;SDS011;56128;37.534;-122.308;2022-10-16T08:56:25;19.75;;;8.60;;
69057;SDS011;56128;37.534;-122.308;2022-10-16T08:58:52;17.23;;;9.23;;
69057;SDS011;56128;37.534;-122.308;2022-10-16T09:01:20;20.00;;;8.43;;
69057;SDS011;56128;37.534;-122.308;2022-10-16T09:12:28;18.88;;;9.20;;
69057;SDS011;56128;37.534;-122.308;2022-10-16T09:20:45;19.35;;;8.88;;
69057;SDS011;56128;37.534;-122.308;2022-10-16T09:23:16;21.50;;;9.63;;
69057;SDS011;56128;37.534;-122.308;2022-10-16T09:25:50;23.35;;;10.15;;
69057;SDS011;56128;37.534;-122.308;2022-10-16T09:28:18;20.42;;;9.52;;
69057;SDS011;56128;37.534;-122.308;2022-10-16T09:30:45;18.52;;;9.50;;
69057;SDS011;56128;37.534;-122.308;2022-10-16T09:33:15;19.50;;;9.50;;
69057;SDS011;56128;37.534;-122.308;2022-10-16T09:35:43;19.60;;;10.10;;
69057;SDS011;56128;37.534;-122.308;2022-10-16T09:38:22;20.13;;;9.02;;
69057;SDS011;56128;37.534;-122.308;2022-10-16T09:40:53;22.95;;;9.68;;
69057;SDS011;56128;37.534;-122.308;2022-10-16T09:43:24;20.20;;;10.15;;
69057;SDS011;56128;37.534;-122.308;2022-10-16T09:48:39;23.23;;;10.57;;
69057;SDS011;56128;37.534;-122.308;2022-10-16T09:51:18;16.38;;;9.13;;
69057;SDS011;56128;37.534;-122.308;2022-10-16T09:53:48;20.88;;;11.45;;
69057;SDS011;56128;37.534;-122.308;2022-10-16T09:58:54;26.50;;;11.48;;
69057;SDS011;56128;37.534;-122.308;2022-10-16T10:01:44;24.55;;;11.48;;
69057;SDS011;56128;37.534;-122.308;2022-10-16T10:04:11;20.23;;;11.63;;
69057;SDS011;56128;37.534;-122.308;2022-10-16T10:06:56;22.52;;;12.60;;
69057;SDS011;56128;37.534;-122.308;2022-10-16T10:09:24;29.27;;;13.55;;
69057;SDS011;56128;37.534;-122.308;2022-10-16T10:11:54;23.45;;;13.35;;
69057;SDS011;56128;37.534;-122.308;2022-10-16T10:14:25;26.80;;;13.75;;
69057;SDS011;56128;37.534;-122.308;2022-10-16T10:19:40;25.23;;;14.07;;
69057;SDS011;56128;37.534;-122.308;2022-10-16T10:22:22;26.95;;;14.50;;
69057;SDS011;56128;37.534;-122.308;2022-10-16T10:27:52;31.77;;;16.42;;
69057;SDS011;56128;37.534;-122.308;2022-10-16T10:30:44;29.55;;;16.63;;
69057;SDS011;56128;37.534;-122.308;2022-10-16T10:33:33;30.23;;;16.85;;
69057;SDS011;56128;37.534;-122.308;2022-10-16T10:45:11;28.27;;;17.45;;
69057;SDS011;56128;37.534;-122.308;2022-10-16T10:50:26;27.88;;;17.35;;
69057;SDS011;56128;37.534;-122.308;2022-10-16T10:53:54;27.75;;;16.05;;
69057;SDS011;56128;37.534;-122.308;2022-10-16T10:56:38;30.65;;;16.85;;
69057;SDS011;56128;37.534;-122.308;2022-10-16T11:07:28;29.17;;;17.77;;
69057;SDS011;56128;37.534;-122.308;2022-10-16T11:10:12;34.58;;;19.50;;
69057;SDS011;56128;37.534;-122.308;2022-10-16T11:12:55;34.10;;;17.23;;
69057;SDS011;56128;37.534;-122.308;2022-10-16T11:15:35;32.53;;;16.85;;
69057;SDS011;56128;37.534;-122.308;2022-10-16T11:20:51;30.52;;;17.67;;
69057;SDS011;56128;37.534;-122.308;2022-10-16T11:23:35;30.95;;;17.05;;
69057;SDS011;56128;37.534;-122.308;2022-10-16T11:26:05;33.65;;;17.50;;
69057;SDS011;56128;37.534;-122.308;2022-10-16T11:28:45;27.50;;;16.52;;
69057;SDS011;56128;37.534;-122.308;2022-10-16T11:31:32;29.88;;;16.67;;
69057;SDS011;56128;37.534;-122.308;2022-10-16T11:34:12;28.73;;;16.65;;
69057;SDS011;56128;37.534;-122.308;2022-10-16T11:36:59;28.27;;;16.10;;
69057;SDS011;56128;37.534;-122.308;2022-10-16T11:39:35;27.88;;;16.58;;
69057;SDS011;56128;37.534;-122.308;2022-10-16T11:42:19;29.40;;;16.38;;
69057;SDS011;56128;37.534;-122.308;2022-10-16T11:56:28;27.88;;;14.60;;
69057;SDS011;56128;37.534;-122.308;2022-10-16T11:59:01;28.75;;;15.13;;
69057;SDS011;56128;37.534;-122.308;2022-10-16T12:04:38;27.05;;;16.17;;
69057;SDS011;56128;37.534;-122.308;2022-10-16T12:07:45;27.20;;;14.93;;
69057;SDS011;56128;37.534;-122.308;2022-10-16T12:10:26;29.27;;;15.10;;
69057;SDS011;56128;37.534;-122.308;2022-10-16T12:12:57;27.75;;;15.02;;
69057;SDS011;56128;37.534;-122.308;2022-10-16T12:15:25;27.25;;;15.45;;
69057;SDS011;56128;37.534;-122.308;2022-10-16T12:17:54;28.38;;;15.27;;
69057;SDS011;56128;37.534;-122.308;2022-10-16T12:20:28;27.65;;;15.43;;
69057;SDS011;56128;37.534;-122.308;2022-10-16T12:23:02;27.98;;;15.23;;
69057;SDS011;56128;37.534;-122.308;2022-10-16T12:25:34;26.77;;;15.60;;
69057;SDS011;56128;37.534;-122.308;2022-10-16T12:30:41;26.20;;;14.98;;
69057;SDS011;56128;37.534;-122.308;2022-10-16T12:33:21;26.02;;;14.00;;
69057;SDS011;56128;37.534;-122.308;2022-10-16T12:35:53;26.48;;;14.27;;
69057;SDS011;56128;37.534;-122.308;2022-10-16T12:38:21;24.25;;;14.23;;
69057;SDS011;56128;37.534;-122.308;2022-10-16T12:41:00;24.67;;;13.35;;
69057;SDS011;56128;37.534;-122.308;2022-10-16T12:48:36;25.33;;;13.63;;
69057;SDS011;56128;37.534;-122.308;2022-10-16T13:13:00;21.70;;;12.23;;
69057;SDS011;56128;37.534;-122.308;2022-10-16T13:18:39;19.65;;;11.77;;
69057;SDS011;56128;37.534;-122.308;2022-10-16T13:21:17;25.50;;;12.35;;
69057;SDS011;56128;37.534;-122.308;2022-10-16T13:27:39;20.67;;;11.73;;
69057;SDS011;56128;37.534;-122.308;2022-10-16T13:30:17;21.95;;;11.73;;
69057;SDS011;56128;37.534;-122.308;2022-10-16T13:32:50;26.40;;;12.32;;
69057;SDS011;56128;37.534;-122.308;2022-10-16T13:35:25;22.88;;;11.73;;
69057;SDS011;56128;37.534;-122.308;2022-10-16T13:38:04;21.52;;;11.55;;
69057;SDS011;56128;37.534;-122.308;2022-10-16T13:40:48;20.30;;;11.27;;
69057;SDS011;56128;37.534;-122.308;2022-10-16T13:43:54;24.92;;;11.00;;
69057;SDS011;56128;37.534;-122.308;2022-10-16T13:46:17;23.55;;;12.52;;
69057;SDS011;56128;37.534;-122.308;2022-10-16T13:48:56;23.10;;;12.13;;
69057;SDS011;56128;37.534;-122.308;2022-10-16T13:51:23;21.25;;;11.27;;
69057;SDS011;56128;37.534;-122.308;2022-10-16T13:53:49;22.08;;;11.63;;
69057;SDS011;56128;37.534;-122.308;2022-10-16T13:56:17;24.52;;;11.77;;
69057;SDS011;56128;37.534;-122.308;2022-10-16T13:58:45;20.38;;;11.55;;
69057;SDS011;56128;37.534;-122.308;2022-10-16T14:01:23;21.50;;;11.55;;
69057;SDS011;56128;37.534;-122.308;2022-10-16T14:03:52;20.60;;;10.48;;
69057;SDS011;56128;37.534;-122.308;2022-10-16T14:06:26;23.45;;;12.13;;
69057;SDS011;56128;37.534;-122.308;2022-10-16T14:09:00;22.95;;;11.57;;
69057;SDS011;56128;37.534;-122.308;2022-10-16T14:11:30;20.42;;;11.45;;
69057;SDS011;56128;37.534;-122.308;2022-10-16T14:13:56;23.20;;;10.77;;
69057;SDS011;56128;37.534;-122.308;2022-10-16T14:16:23;17.73;;;9.77;;
69057;SDS011;56128;37.534;-122.308;2022-10-16T14:19:03;21.23;;;10.40;;
69057;SDS011;56128;37.534;-122.308;2022-10-16T14:21:36;21.60;;;9.63;;
69057;SDS011;56128;37.534;-122.308;2022-10-16T14:27:00;17.77;;;8.77;;
69057;SDS011;56128;37.534;-122.308;2022-10-16T14:29:28;16.38;;;8.38;;
69057;SDS011;56128;37.534;-122.308;2022-10-16T14:32:02;16.30;;;9.27;;
69057;SDS011;56128;37.534;-122.308;2022-10-16T14:37:40;16.52;;;8.32;;
69057;SDS011;56128;37.534;-122.308;2022-10-16T14:39:52;18.77;;;8.82;;
69057;SDS011;56128;37.534;-122.308;2022-10-16T14:42:19;18.65;;;9.20;;
69057;SDS011;56128;37.534;-122.308;2022-10-16T14:44:51;17.83;;;8.93;;
69057;SDS011;56128;37.534;-122.308;2022-10-16T14:47:20;20.50;;;9.25;;
69057;SDS011;56128;37.534;-122.308;2022-10-16T14:49:53;18.83;;;9.13;;
69057;SDS011;56128;37.534;-122.308;2022-10-16T14:52:21;21.80;;;9.07;;
69057;SDS011;56128;37.534;-122.308;2022-10-16T14:54:50;17.98;;;9.02;;
69057;SDS011;56128;37.534;-122.308;2022-10-16T14:57:22;16.87;;;8.90;;
69057;SDS011;56128;37.534;-122.308;2022-10-16T14:59:52;18.45;;;9.13;;
69057;SDS011;56128;37.534;-122.308;2022-10-16T15:02:31;23.40;;;9.48;;
69057;SDS011;56128;37.534;-122.308;2022-10-16T15:05:04;20.05;;;9.13;;
69057;SDS011;56128;37.534;-122.308;2022-10-16T15:07:38;18.58;;;9.60;;
69057;SDS011;56128;37.534;-122.308;2022-10-16T15:10:05;20.63;;;9.48;;
69057;SDS011;56128;37.534;-122.308;2022-10-16T15:12:31;18.10;;;9.18;;
69057;SDS011;56128;37.534;-122.308;2022-10-16T15:14:57;16.60;;;8.98;;
69057;SDS011;56128;37.534;-122.308;2022-10-16T15:17:23;15.40;;;9.15;;
69057;SDS011;56128;37.534;-122.308;2022-10-16T15:19:49;17.35;;;9.45;;
69057;SDS011;56128;37.534;-122.308;2022-10-16T15:22:16;19.42;;;9.02;;
69057;SDS011;56128;37.534;-122.308;2022-10-16T15:24:42;16.35;;;8.50;;
69057;SDS011;56128;37.534;-122.308;2022-10-16T15:27:09;16.15;;;8.85;;
69057;SDS011;56128;37.534;-122.308;2022-10-16T15:29:35;19.77;;;9.18;;
69057;SDS011;56128;37.534;-122.308;2022-10-16T15:32:01;18.83;;;7.80;;
69057;SDS011;56128;37.534;-122.308;2022-10-16T15:34:27;15.48;;;8.07;;
69057;SDS011;56128;37.534;-122.308;2022-10-16T15:36:53;18.42;;;7.97;;
69057;SDS011;56128;37.534;-122.308;2022-10-16T15:39:22;15.77;;;7.68;;
69057;SDS011;56128;37.534;-122.308;2022-10-16T15:41:48;19.95;;;8.35;;
69057;SDS011;56128;37.534;-122.308;2022-10-16T15:44:16;22.40;;;7.20;;
69057;SDS011;56128;37.534;-122.308;2022-10-16T15:46:43;16.52;;;7.75;;
69057;SDS011;56128;37.534;-122.308;2022-10-16T15:49:09;16.70;;;7.63;;
69057;SDS011;56128;37.534;-122.308;2022-10-16T15:51:40;16.67;;;7.55;;
69057;SDS011;56128;37.534;-122.308;2022-10-16T15:54:07;18.45;;;7.55;;
69057;SDS011;56128;37.534;-122.308;2022-10-16T15:56:34;13.25;;;7.10;;
69057;SDS011;56128;37.534;-122.308;2022-10-16T15:59:02;15.35;;;7.40;;
69057;SDS011;56128;37.534;-122.308;2022-10-16T16:01:31;16.60;;;7.35;;
69057;SDS011;56128;37.534;-122.308;2022-10-16T16:03:59;17.45;;;7.60;;
69057;SDS011;56128;37.534;-122.308;2022-10-16T16:06:25;13.73;;;7.28;;
69057;SDS011;56128;37.534;-122.308;2022-10-16T16:08:52;17.30;;;7.43;;
69057;SDS011;56128;37.534;-122.308;2022-10-16T16:11:19;17.15;;;8.02;;
69057;SDS011;56128;37.534;-122.308;2022-10-16T16:13:47;15.45;;;7.53;;
69057;SDS011;56128;37.534;-122.308;2022-10-16T16:16:14;19.52;;;7.05;;
69057;SDS011;56128;37.534;-122.308;2022-10-16T16:18:41;14.95;;;6.85;;
69057;SDS011;56128;37.534;-122.308;2022-10-16T16:21:09;13.90;;;6.97;;
69057;SDS011;56128;37.534;-122.308;2022-10-16T16:23:37;15.10;;;6.63;;